Time;durP1;ratioP1;P1;durP2;ratioP2;P2;SDS_P1;SDS_P2;PMS_P1;PMS_P2;Temp;Humidity;BMP_temperature;BMP_pressure;BME280_temperature;BME280_humidity;BME280_pressure;Samples;Min_cycle;Max_cycle;Signal;HPM_P1;HPM_P2
2023/07/20 00:01:23;;;;;;;1.70;1.00;;;;;;;;;;5072056;28;20738;-83
2023/07/20 00:03:54;;;;;;;1.55;1.05;;;;;;;;;;5070908;28;20426;-83
2023/07/20 00:06:20;;;;;;;1.73;1.00;;;;;;;;;;5071540;28;20379;-83
2023/07/20 00:08:46;;;;;;;1.95;1.10;;;;;;;;;;5071936;28;20486;-83
2023/07/20 00:11:13;;;;;;;1.50;1.10;;;;;;;;;;5072065;28;20872;-82
2023/07/20 00:13:39;;;;;;;1.73;1.00;;;;;;;;;;5072077;28;20722;-83
2023/07/20 00:16:05;;;;;;;1.27;0.98;;;;;;;;;;5060240;28;20835;-83
2023/07/20 00:18:31;;;;;;;1.60;1.10;;;;;;;;;;5071578;28;20375;-83
2023/07/20 00:20:59;;;;;;;2.83;1.00;;;;;;;;;;5071325;28;20448;-83
2023/07/20 00:23:25;;;;;;;2.00;1.10;;;;;;;;;;5071866;28;20380;-83
2023/07/20 00:25:51;;;;;;;2.35;1.10;;;;;;;;;;5071852;28;20529;-83
2023/07/20 00:28:17;;;;;;;1.20;0.90;;;;;;;;;;5071701;28;20489;-83
2023/07/20 00:30:43;;;;;;;2.20;1.10;;;;;;;;;;5071832;28;20967;-83
2023/07/20 00:33:11;;;;;;;1.40;1.10;;;;;;;;;;5071985;28;20388;-82
2023/07/20 00:35:37;;;;;;;2.58;1.08;;;;;;;;;;5058999;28;20952;-83
2023/07/20 00:38:03;;;;;;;0.93;0.75;;;;;;;;;;5071745;28;20784;-83
2023/07/20 00:40:35;;;;;;;1.80;1.00;;;;;;;;;;5068976;28;20404;-83
2023/07/20 00:43:01;;;;;;;1.57;1.10;;;;;;;;;;5070673;28;20374;-83
2023/07/20 00:45:28;;;;;;;4.07;1.10;;;;;;;;;;5074239;28;20391;-83
2023/07/20 00:47:54;;;;;;;1.77;1.10;;;;;;;;;;5076373;28;20380;-82
2023/07/20 00:50:20;;;;;;;3.10;1.20;;;;;;;;;;5077418;28;20401;-83
2023/07/20 00:52:46;;;;;;;1.53;1.10;;;;;;;;;;5075230;28;20428;-83
2023/07/20 00:55:12;;;;;;;3.37;1.10;;;;;;;;;;5075619;28;20889;-82
2023/07/20 00:57:38;;;;;;;2.75;1.13;;;;;;;;;;5075223;28;20379;-83
2023/07/20 01:00:06;;;;;;;1.38;1.10;;;;;;;;;;5074780;28;20380;-83
2023/07/20 01:02:32;;;;;;;1.45;1.30;;;;;;;;;;5075164;28;20379;-83
2023/07/20 01:04:58;;;;;;;1.80;1.30;;;;;;;;;;5075429;28;20372;-83
2023/07/20 01:07:27;;;;;;;1.75;1.17;;;;;;;;;;5075279;28;20398;-83
2023/07/20 01:10:01;;;;;;;2.38;1.17;;;;;;;;;;5057440;28;20734;-83
2023/07/20 01:12:31;;;;;;;1.35;1.20;;;;;;;;;;5075299;28;20871;-82
2023/07/20 01:14:57;;;;;;;1.65;1.08;;;;;;;;;;5056863;28;20379;-83
2023/07/20 01:17:24;;;;;;;1.90;1.40;;;;;;;;;;5075158;28;20501;-83
2023/07/20 01:19:50;;;;;;;3.08;1.25;;;;;;;;;;5074886;28;20388;-83
2023/07/20 01:22:26;;;;;;;1.67;1.20;;;;;;;;;;5074996;28;20386;-82
2023/07/20 01:24:59;;;;;;;1.73;1.10;;;;;;;;;;5074978;28;20375;-83
2023/07/20 01:27:25;;;;;;;1.10;0.90;;;;;;;;;;5075085;28;20376;-83
2023/07/20 01:29:57;;;;;;;1.47;1.30;;;;;;;;;;5074896;28;20376;-83
2023/07/20 01:32:24;;;;;;;2.08;1.00;;;;;;;;;;5074808;28;20382;-83
2023/07/20 01:34:53;;;;;;;1.63;1.10;;;;;;;;;;5074829;28;20467;-83
2023/07/20 01:37:20;;;;;;;1.93;1.40;;;;;;;;;;5074852;28;20372;-83
2023/07/20 01:39:46;;;;;;;1.40;1.13;;;;;;;;;;5074666;28;20368;-83
2023/07/20 01:42:12;;;;;;;1.48;1.10;;;;;;;;;;5074625;28;20371;-83
2023/07/20 01:44:39;;;;;;;2.25;1.02;;;;;;;;;;5074706;28;20414;-83
2023/07/20 01:47:05;;;;;;;2.55;1.40;;;;;;;;;;5060025;28;20878;-83
2023/07/20 01:49:31;;;;;;;1.20;1.08;;;;;;;;;;5081197;28;20412;-83
2023/07/20 01:51:57;;;;;;;1.50;1.10;;;;;;;;;;5090547;28;20380;-83
2023/07/20 01:54:23;;;;;;;2.80;1.10;;;;;;;;;;5092321;28;20389;-83
2023/07/20 01:56:49;;;;;;;2.42;1.23;;;;;;;;;;5092300;28;20808;-83
2023/07/20 01:59:15;;;;;;;2.60;1.48;;;;;;;;;;5094311;28;20374;-83
2023/07/20 02:01:41;;;;;;;1.92;1.20;;;;;;;;;;5094542;28;20855;-83
2023/07/20 02:04:07;;;;;;;3.38;1.20;;;;;;;;;;5094048;28;20451;-83
2023/07/20 02:06:33;;;;;;;2.50;1.27;;;;;;;;;;5093221;28;20379;-83
2023/07/20 02:08:59;;;;;;;2.50;1.40;;;;;;;;;;5094200;28;20867;-83
2023/07/20 02:11:25;;;;;;;1.75;1.48;;;;;;;;;;5094525;28;20374;-83
2023/07/20 02:13:51;;;;;;;2.13;1.50;;;;;;;;;;5094501;28;20438;-83
2023/07/20 02:16:17;;;;;;;1.67;1.30;;;;;;;;;;5094113;28;21014;-84
2023/07/20 02:18:43;;;;;;;2.00;1.50;;;;;;;;;;5094316;28;20374;-83
2023/07/20 02:21:09;;;;;;;1.93;1.40;;;;;;;;;;5094361;28;20374;-83
2023/07/20 02:23:35;;;;;;;1.70;1.60;;;;;;;;;;5094041;28;20381;-83
2023/07/20 02:26:01;;;;;;;2.00;1.60;;;;;;;;;;5093644;28;20370;-83
2023/07/20 02:28:27;;;;;;;3.08;1.60;;;;;;;;;;5092936;28;20862;-83
2023/07/20 02:30:53;;;;;;;1.88;1.70;;;;;;;;;;5094188;28;20386;-83
2023/07/20 02:33:20;;;;;;;2.60;1.70;;;;;;;;;;5093927;28;20914;-83
2023/07/20 02:35:46;;;;;;;3.93;1.80;;;;;;;;;;5091081;28;20493;-83
2023/07/20 02:38:12;;;;;;;2.75;1.88;;;;;;;;;;5093763;28;20382;-83
2023/07/20 02:40:38;;;;;;;2.20;1.67;;;;;;;;;;5093769;28;20423;-84
2023/07/20 02:43:04;;;;;;;2.15;1.85;;;;;;;;;;5093955;28;20374;-83
2023/07/20 02:45:30;;;;;;;2.45;1.80;;;;;;;;;;5075552;28;20763;-83
2023/07/20 02:47:56;;;;;;;2.80;2.00;;;;;;;;;;5093446;28;20899;-83
2023/07/20 02:50:22;;;;;;;1.77;1.60;;;;;;;;;;5093667;28;20472;-83
2023/07/20 02:52:48;;;;;;;3.17;1.98;;;;;;;;;;5074363;28;20751;-83
2023/07/20 02:55:14;;;;;;;3.25;2.25;;;;;;;;;;5090101;28;20571;-83
2023/07/20 02:57:40;;;;;;;5.40;2.10;;;;;;;;;;5091082;28;20883;-83
2023/07/20 03:00:07;;;;;;;3.17;1.70;;;;;;;;;;5093152;28;20451;-83
2023/07/20 03:02:33;;;;;;;2.25;1.73;;;;;;;;;;5088448;28;20381;-83
2023/07/20 03:05:01;;;;;;;3.53;2.22;;;;;;;;;;5093379;28;20388;-83
2023/07/20 03:07:28;;;;;;;2.20;2.00;;;;;;;;;;5093034;28;20455;-83
2023/07/20 03:09:55;;;;;;;2.08;1.70;;;;;;;;;;5093419;28;20390;-83
2023/07/20 03:12:21;;;;;;;2.58;2.03;;;;;;;;;;5093149;28;20431;-83
2023/07/20 03:14:47;;;;;;;1.83;1.67;;;;;;;;;;5093088;28;20378;-83
2023/07/20 03:17:13;;;;;;;2.20;2.00;;;;;;;;;;5093062;28;20451;-83
2023/07/20 03:19:40;;;;;;;3.65;2.10;;;;;;;;;;5092928;28;20374;-83
2023/07/20 03:22:06;;;;;;;2.72;2.00;;;;;;;;;;5093068;28;20377;-83
2023/07/20 03:24:32;;;;;;;2.43;2.07;;;;;;;;;;5093126;28;20423;-83
2023/07/20 03:26:59;;;;;;;4.20;2.10;;;;;;;;;;5074719;28;20785;-83
2023/07/20 03:29:25;;;;;;;2.30;1.83;;;;;;;;;;5074690;28;20766;-83
2023/07/20 03:31:51;;;;;;;2.83;1.90;;;;;;;;;;5092893;28;20378;-83
2023/07/20 03:34:17;;;;;;;3.25;2.00;;;;;;;;;;5093122;28;20393;-83
2023/07/20 03:36:43;;;;;;;2.00;1.80;;;;;;;;;;5092690;28;20931;-83
2023/07/20 03:39:09;;;;;;;3.40;2.03;;;;;;;;;;5092787;28;20410;-83
2023/07/20 03:41:36;;;;;;;2.00;1.87;;;;;;;;;;5092863;28;20416;-83
2023/07/20 03:44:03;;;;;;;2.30;2.10;;;;;;;;;;5092611;28;20375;-83
2023/07/20 03:46:29;;;;;;;3.60;2.15;;;;;;;;;;5092932;28;20413;-83
2023/07/20 03:48:55;;;;;;;2.08;1.85;;;;;;;;;;5091712;28;20425;-83
2023/07/20 03:51:20;;;;;;;2.22;1.85;;;;;;;;;;5092052;28;20806;-83
2023/07/20 03:53:46;;;;;;;2.00;1.75;;;;;;;;;;5092421;28;20378;-84
2023/07/20 03:56:13;;;;;;;3.20;2.00;;;;;;;;;;5092446;28;20736;-83
2023/07/20 03:58:39;;;;;;;3.45;2.00;;;;;;;;;;5082749;28;20733;-82
2023/07/20 04:01:05;;;;;;;4.40;2.33;;;;;;;;;;5089591;28;20374;-83
2023/07/20 04:03:31;;;;;;;3.10;1.93;;;;;;;;;;5090354;28;20389;-83
2023/07/20 04:05:56;;;;;;;2.40;1.70;;;;;;;;;;5091262;28;20382;-83
2023/07/20 04:08:25;;;;;;;2.50;2.00;;;;;;;;;;5091835;28;20473;-83
2023/07/20 04:10:52;;;;;;;2.03;1.83;;;;;;;;;;5092250;28;20386;-83
2023/07/20 04:13:18;;;;;;;2.10;1.70;;;;;;;;;;5092240;28;20375;-82
2023/07/20 04:15:44;;;;;;;3.25;2.30;;;;;;;;;;5092164;28;20428;-83
2023/07/20 04:18:10;;;;;;;2.08;1.98;;;;;;;;;;5091792;28;20371;-83
2023/07/20 04:20:36;;;;;;;3.00;2.47;;;;;;;;;;5092078;28;20378;-83
2023/07/20 04:23:02;;;;;;;2.50;1.90;;;;;;;;;;5090385;28;20386;-83
2023/07/20 04:25:28;;;;;;;2.47;1.83;;;;;;;;;;5092300;28;20390;-84
2023/07/20 04:27:55;;;;;;;1.92;1.77;;;;;;;;;;5092090;28;20382;-83
2023/07/20 04:30:22;;;;;;;3.42;2.20;;;;;;;;;;5091992;28;20374;-83
2023/07/20 04:32:48;;;;;;;3.22;2.10;;;;;;;;;;5092111;28;20466;-83
2023/07/20 04:35:37;;;;;;;2.72;1.80;;;;;;;;;;5091831;28;20457;-83
2023/07/20 04:38:03;;;;;;;2.60;2.10;;;;;;;;;;5081454;28;20409;-83
2023/07/20 04:40:29;;;;;;;3.00;1.88;;;;;;;;;;5073976;28;20922;-83
2023/07/20 04:42:55;;;;;;;3.03;1.90;;;;;;;;;;5073965;28;20374;-83
2023/07/20 04:45:23;;;;;;;2.20;2.00;;;;;;;;;;5089274;28;20387;-83
2023/07/20 04:47:50;;;;;;;2.78;1.98;;;;;;;;;;5091705;28;20398;-83
2023/07/20 04:50:16;;;;;;;2.70;1.92;;;;;;;;;;5091970;28;20382;-84
2023/07/20 04:52:42;;;;;;;3.72;2.30;;;;;;;;;;5090995;28;20394;-83
2023/07/20 04:55:09;;;;;;;3.33;2.05;;;;;;;;;;5071155;28;20387;-83
2023/07/20 04:57:35;;;;;;;3.83;1.85;;;;;;;;;;5090676;28;20720;-83
2023/07/20 05:00:01;;;;;;;3.60;2.05;;;;;;;;;;5091889;28;20366;-83
2023/07/20 05:02:27;;;;;;;2.97;2.10;;;;;;;;;;5083049;28;20374;-83
2023/07/20 05:04:53;;;;;;;3.05;2.00;;;;;;;;;;5091693;28;20389;-83
2023/07/20 05:07:19;;;;;;;3.08;2.17;;;;;;;;;;5090056;28;20735;-84
2023/07/20 05:09:45;;;;;;;3.47;2.10;;;;;;;;;;5054890;28;20418;-85
2023/07/20 05:12:12;;;;;;;3.65;2.10;;;;;;;;;;5076949;28;20443;-83
2023/07/20 05:14:38;;;;;;;4.15;2.25;;;;;;;;;;5071522;28;20514;-83
2023/07/20 05:17:04;;;;;;;5.93;2.28;;;;;;;;;;5065464;28;20405;-82
2023/07/20 05:19:30;;;;;;;2.38;2.17;;;;;;;;;;5077853;28;20369;-83
2023/07/20 05:21:56;;;;;;;2.78;2.10;;;;;;;;;;5077269;28;20378;-82
2023/07/20 05:24:22;;;;;;;2.50;2.30;;;;;;;;;;5073439;28;20412;-83
2023/07/20 05:26:49;;;;;;;2.95;2.00;;;;;;;;;;5091348;28;20404;-82
2023/07/20 05:29:15;;;;;;;4.30;1.98;;;;;;;;;;5091565;28;20469;-82
2023/07/20 05:31:41;;;;;;;2.58;2.13;;;;;;;;;;5079129;28;20386;-82
2023/07/20 05:34:07;;;;;;;2.80;2.15;;;;;;;;;;5087314;28;20478;-82
2023/07/20 05:36:33;;;;;;;3.67;2.00;;;;;;;;;;5074767;28;20404;-83
2023/07/20 05:38:59;;;;;;;3.83;2.30;;;;;;;;;;5094590;28;20812;-83
2023/07/20 05:41:25;;;;;;;2.38;2.10;;;;;;;;;;5095124;28;20382;-83
2023/07/20 05:43:51;;;;;;;3.00;2.30;;;;;;;;;;5079632;28;20411;-81
2023/07/20 05:46:17;;;;;;;3.42;2.47;;;;;;;;;;5076577;28;20384;-82
2023/07/20 05:48:43;;;;;;;2.17;1.97;;;;;;;;;;5083359;28;20412;-83
2023/07/20 05:51:09;;;;;;;4.63;2.17;;;;;;;;;;5082656;28;20412;-83
2023/07/20 05:53:36;;;;;;;2.50;2.20;;;;;;;;;;5080552;28;20879;-83
2023/07/20 05:56:02;;;;;;;3.42;2.30;;;;;;;;;;5080649;28;20824;-83
2023/07/20 05:58:28;;;;;;;3.58;2.20;;;;;;;;;;5094580;28;20374;-83
2023/07/20 06:00:54;;;;;;;4.38;2.40;;;;;;;;;;5090200;28;20380;-83
2023/07/20 06:03:23;;;;;;;2.30;1.95;;;;;;;;;;5080359;28;20422;-83
2023/07/20 06:05:49;;;;;;;3.63;2.20;;;;;;;;;;5088039;28;20386;-83
2023/07/20 06:08:15;;;;;;;2.67;2.20;;;;;;;;;;5094403;28;20389;-83
2023/07/20 06:10:41;;;;;;;3.70;2.53;;;;;;;;;;5079952;28;20376;-84
2023/07/20 06:13:07;;;;;;;2.97;2.30;;;;;;;;;;5083489;28;20849;-84
2023/07/20 06:15:39;;;;;;;3.43;2.57;;;;;;;;;;5070058;28;20412;-84
2023/07/20 06:18:04;;;;;;;3.58;2.50;;;;;;;;;;5084631;28;20387;-83
2023/07/20 06:20:30;;;;;;;2.40;2.20;;;;;;;;;;5067055;28;20448;-83
2023/07/20 06:22:56;;;;;;;2.58;2.03;;;;;;;;;;5065295;28;20414;-83
2023/07/20 06:25:22;;;;;;;3.63;2.40;;;;;;;;;;5073595;28;20737;-83
2023/07/20 06:27:51;;;;;;;3.20;2.08;;;;;;;;;;5093757;28;20382;-83
2023/07/20 06:30:17;;;;;;;2.55;2.00;;;;;;;;;;5074099;28;20745;-83
2023/07/20 06:32:43;;;;;;;3.40;2.30;;;;;;;;;;5093212;28;20382;-83
2023/07/20 06:35:09;;;;;;;2.45;2.25;;;;;;;;;;5075538;28;20386;-83
2023/07/20 06:37:35;;;;;;;4.05;2.33;;;;;;;;;;5078240;28;20922;-83
2023/07/20 06:40:03;;;;;;;3.78;2.08;;;;;;;;;;5093779;28;20378;-83
2023/07/20 06:42:29;;;;;;;2.50;2.30;;;;;;;;;;5086689;28;20371;-83
2023/07/20 06:44:55;;;;;;;3.47;2.27;;;;;;;;;;5073608;28;20376;-83
2023/07/20 06:47:21;;;;;;;2.33;1.90;;;;;;;;;;5073408;28;20387;-83
2023/07/20 06:49:47;;;;;;;2.75;2.00;;;;;;;;;;5084004;28;20911;-83
2023/07/20 06:52:14;;;;;;;3.80;2.30;;;;;;;;;;5093403;28;20398;-83
2023/07/20 06:54:40;;;;;;;2.78;2.45;;;;;;;;;;5093549;28;20378;-83
2023/07/20 06:57:06;;;;;;;4.22;2.45;;;;;;;;;;5093320;28;20448;-83
2023/07/20 06:59:32;;;;;;;2.53;2.25;;;;;;;;;;5093328;28;20382;-83
2023/07/20 07:01:58;;;;;;;3.05;2.38;;;;;;;;;;5092967;28;20378;-83
2023/07/20 07:04:24;;;;;;;2.30;2.10;;;;;;;;;;5093126;28;20378;-83
2023/07/20 07:06:50;;;;;;;4.05;2.05;;;;;;;;;;5084959;28;20859;-82
2023/07/20 07:09:16;;;;;;;3.33;2.20;;;;;;;;;;5093169;28;20393;-83
2023/07/20 07:11:42;;;;;;;2.72;2.00;;;;;;;;;;5093158;28;20378;-84
2023/07/20 07:14:08;;;;;;;2.42;2.00;;;;;;;;;;5093057;28;20883;-84
2023/07/20 07:16:33;;;;;;;2.50;1.90;;;;;;;;;;5076921;28;20477;-84
2023/07/20 07:18:59;;;;;;;2.83;2.10;;;;;;;;;;5083709;28;20476;-82
2023/07/20 07:21:25;;;;;;;3.13;2.00;;;;;;;;;;5089590;28;20738;-83
2023/07/20 07:23:54;;;;;;;2.30;1.80;;;;;;;;;;5092876;28;20378;-83
2023/07/20 07:26:21;;;;;;;2.65;2.00;;;;;;;;;;5084653;28;20378;-84
2023/07/20 07:28:47;;;;;;;3.80;2.00;;;;;;;;;;5065911;28;20737;-83
2023/07/20 07:31:13;;;;;;;2.92;1.90;;;;;;;;;;5092270;28;20408;-83
2023/07/20 07:33:39;;;;;;;2.45;2.00;;;;;;;;;;5091339;28;20378;-83
2023/07/20 07:36:05;;;;;;;2.47;1.90;;;;;;;;;;5092425;28;20401;-84
2023/07/20 07:38:31;;;;;;;3.47;1.97;;;;;;;;;;5092465;28;20931;-83
2023/07/20 07:40:58;;;;;;;2.33;1.80;;;;;;;;;;5092967;28;20389;-84
2023/07/20 07:43:24;;;;;;;3.30;1.90;;;;;;;;;;5092568;28;20431;-83
2023/07/20 07:45:50;;;;;;;2.90;2.00;;;;;;;;;;5091679;28;20382;-84
2023/07/20 07:48:17;;;;;;;2.65;1.98;;;;;;;;;;5092343;28;20812;-83
2023/07/20 07:50:43;;;;;;;3.05;1.90;;;;;;;;;;5086755;28;20564;-83
2023/07/20 07:53:09;;;;;;;5.07;1.87;;;;;;;;;;5082407;28;20406;-83
2023/07/20 07:55:36;;;;;;;4.60;2.10;;;;;;;;;;5092108;28;20398;-83
2023/07/20 07:58:02;;;;;;;4.03;2.03;;;;;;;;;;5092307;28;20385;-83
2023/07/20 08:00:28;;;;;;;2.10;1.67;;;;;;;;;;5091646;28;20461;-83
2023/07/20 08:02:54;;;;;;;2.85;1.77;;;;;;;;;;5092018;28;20881;-83
2023/07/20 08:05:20;;;;;;;5.13;1.98;;;;;;;;;;5092054;28;20386;-84
2023/07/20 08:07:45;;;;;;;3.15;1.73;;;;;;;;;;5092074;28;20410;-83
2023/07/20 08:10:12;;;;;;;1.70;1.60;;;;;;;;;;5092186;28;20382;-84
2023/07/20 08:12:38;;;;;;;3.03;1.75;;;;;;;;;;5092246;28;20374;-84
2023/07/20 08:15:04;;;;;;;3.10;1.70;;;;;;;;;;5091623;28;20855;-84
2023/07/20 08:17:30;;;;;;;2.03;1.80;;;;;;;;;;5073770;28;20802;-84
2023/07/20 08:19:56;;;;;;;2.90;1.70;;;;;;;;;;5090948;28;20403;-85
2023/07/20 08:22:22;;;;;;;2.58;1.50;;;;;;;;;;5092265;28;20423;-84
2023/07/20 08:24:48;;;;;;;2.83;1.80;;;;;;;;;;5091531;28;20386;-84
2023/07/20 08:27:14;;;;;;;1.47;1.37;;;;;;;;;;5092210;28;20378;-84
2023/07/20 08:29:40;;;;;;;1.80;1.57;;;;;;;;;;5092063;28;20389;-86
2023/07/20 08:32:06;;;;;;;2.30;1.70;;;;;;;;;;5091662;28;20735;-84
2023/07/20 08:34:33;;;;;;;3.88;1.50;;;;;;;;;;5089982;28;20881;-85
2023/07/20 08:36:59;;;;;;;3.40;1.70;;;;;;;;;;5091102;28;20406;-84
2023/07/20 08:39:25;;;;;;;2.45;1.50;;;;;;;;;;5091105;28;20400;-85
2023/07/20 08:41:51;;;;;;;3.13;2.00;;;;;;;;;;5072024;28;20370;-84
2023/07/20 08:44:18;;;;;;;2.10;1.60;;;;;;;;;;5090361;28;20453;-84
2023/07/20 08:46:44;;;;;;;3.92;2.10;;;;;;;;;;5091653;28;20447;-86
2023/07/20 08:49:11;;;;;;;3.00;1.77;;;;;;;;;;5091448;28;20409;-85
2023/07/20 08:51:37;;;;;;;3.20;1.77;;;;;;;;;;5091859;28;20432;-85
2023/07/20 08:54:03;;;;;;;3.40;1.60;;;;;;;;;;5091561;28;20457;-84
2023/07/20 08:56:31;;;;;;;2.42;1.95;;;;;;;;;;5091672;28;20448;-85
2023/07/20 08:58:57;;;;;;;2.40;2.10;;;;;;;;;;5073833;28;20386;-85
2023/07/20 09:01:24;;;;;;;2.55;1.60;;;;;;;;;;5091833;28;20382;-86
2023/07/20 09:03:50;;;;;;;2.57;1.30;;;;;;;;;;5083057;28;20410;-85
2023/07/20 09:06:16;;;;;;;2.90;1.40;;;;;;;;;;5077563;28;20469;-86
2023/07/20 09:08:42;;;;;;;2.10;1.50;;;;;;;;;;5095668;28;20465;-84
2023/07/20 09:11:09;;;;;;;2.90;1.42;;;;;;;;;;5095569;28;20405;-83
2023/07/20 09:13:35;;;;;;;3.75;1.73;;;;;;;;;;5095576;28;20743;-91
2023/07/20 09:16:03;;;;;;;2.20;1.50;;;;;;;;;;5082485;28;20403;-90
2023/07/20 09:18:31;;;;;;;15.30;2.50;;;;;;;;;;5091150;28;20374;-90
2023/07/20 09:21:01;;;;;;;3.80;1.90;;;;;;;;;;5095356;28;20370;-90
2023/07/20 09:23:31;;;;;;;2.00;1.60;;;;;;;;;;5094999;28;20378;-92
2023/07/20 09:25:58;;;;;;;3.53;1.60;;;;;;;;;;5095528;28;20385;-91
2023/07/20 09:28:24;;;;;;;4.28;1.80;;;;;;;;;;5077201;28;20519;-90
2023/07/20 09:30:50;;;;;;;3.45;2.30;;;;;;;;;;5087071;28;20910;-90
2023/07/20 09:33:21;;;;;;;4.55;2.55;;;;;;;;;;5090503;28;20457;-91
2023/07/20 09:35:47;;;;;;;3.05;1.70;;;;;;;;;;5087464;28;20412;-90
2023/07/20 09:38:14;;;;;;;1.98;1.55;;;;;;;;;;5089943;28;20370;-90
2023/07/20 09:40:41;;;;;;;3.28;1.58;;;;;;;;;;5076685;28;20371;-90
2023/07/20 09:43:10;;;;;;;4.22;2.22;;;;;;;;;;5076595;28;20374;-90
2023/07/20 09:45:40;;;;;;;2.33;1.90;;;;;;;;;;5094843;28;20378;-91
2023/07/20 09:48:07;;;;;;;3.95;2.05;;;;;;;;;;5083619;28;20399;-91
2023/07/20 09:50:33;;;;;;;2.40;1.70;;;;;;;;;;5090408;28;20928;-90
2023/07/20 09:53:02;;;;;;;1.88;1.45;;;;;;;;;;5078611;28;20444;-90
2023/07/20 09:55:28;;;;;;;2.75;1.60;;;;;;;;;;5085603;28;20386;-91
2023/07/20 09:57:55;;;;;;;2.30;1.90;;;;;;;;;;5068384;28;20709;-90
2023/07/20 10:00:21;;;;;;;8.65;1.58;;;;;;;;;;5062670;28;20379;-90
2023/07/20 10:02:50;;;;;;;2.67;1.88;;;;;;;;;;5093985;28;20809;-91
2023/07/20 10:05:16;;;;;;;3.55;1.63;;;;;;;;;;5075550;28;20370;-90
2023/07/20 10:07:47;;;;;;;4.72;1.50;;;;;;;;;;5094402;28;20374;-90
2023/07/20 10:10:14;;;;;;;3.88;1.20;;;;;;;;;;5076667;28;20885;-90
2023/07/20 10:12:42;;;;;;;3.25;1.60;;;;;;;;;;5094464;28;20385;-89
2023/07/20 10:15:08;;;;;;;2.00;1.23;;;;;;;;;;5075292;28;20417;-90
2023/07/20 10:17:34;;;;;;;1.58;1.30;;;;;;;;;;5093522;28;20402;-90
2023/07/20 10:20:02;;;;;;;2.38;1.40;;;;;;;;;;5093723;28;20378;-90
2023/07/20 10:22:30;;;;;;;2.73;1.53;;;;;;;;;;5094251;28;20404;-90
2023/07/20 10:24:58;;;;;;;2.65;1.60;;;;;;;;;;5075654;28;20374;-89
2023/07/20 10:27:25;;;;;;;2.08;1.65;;;;;;;;;;5091068;22;20426;-86
2023/07/20 10:29:53;;;;;;;1.92;1.50;;;;;;;;;;5090980;28;20376;-86
2023/07/20 10:32:19;;;;;;;3.57;1.73;;;;;;;;;;5114709;28;20376;-88
2023/07/20 10:34:51;;;;;;;2.20;1.20;;;;;;;;;;5114486;28;20913;-88
2023/07/20 10:37:41;;;;;;;4.57;1.40;;;;;;;;;;5096176;28;20916;-87
2023/07/20 10:40:25;;;;;;;2.47;1.52;;;;;;;;;;5103466;28;20389;-87
2023/07/20 10:42:51;;;;;;;5.80;1.88;;;;;;;;;;5092845;28;20458;-87
2023/07/20 10:45:18;;;;;;;6.03;1.83;;;;;;;;;;5095305;28;20807;-86
2023/07/20 10:47:47;;;;;;;2.17;1.67;;;;;;;;;;5096254;28;20745;-87
2023/07/20 10:50:13;;;;;;;4.38;1.48;;;;;;;;;;5099311;28;20464;-87
2023/07/20 10:52:42;;;;;;;6.72;1.50;;;;;;;;;;5090003;28;20466;-86
2023/07/20 10:55:14;;;;;;;2.70;1.48;;;;;;;;;;5076290;28;20378;-88
2023/07/20 10:57:40;;;;;;;5.13;1.67;;;;;;;;;;5113886;28;20857;-88
2023/07/20 11:00:13;;;;;;;2.83;1.23;;;;;;;;;;5114537;28;20380;-86
2023/07/20 11:02:43;;;;;;;5.50;1.63;;;;;;;;;;5087041;28;20376;-88
2023/07/20 11:05:29;;;;;;;3.60;1.50;;;;;;;;;;5114245;28;20459;-87
2023/07/20 11:07:55;;;;;;;2.08;1.38;;;;;;;;;;5114015;28;20376;-87
2023/07/20 11:10:21;;;;;;;3.65;1.40;;;;;;;;;;5114644;28;20368;-87
2023/07/20 11:13:06;;;;;;;2.58;1.25;;;;;;;;;;5095730;28;20384;-86
2023/07/20 11:15:58;;;;;;;1.45;1.35;;;;;;;;;;5105168;28;20371;-87
2023/07/20 11:18:27;;;;;;;5.38;1.48;;;;;;;;;;5108487;28;20385;-87
2023/07/20 11:20:53;;;;;;;2.80;1.50;;;;;;;;;;5114131;28;20372;-86
2023/07/20 11:23:23;;;;;;;1.38;1.23;;;;;;;;;;5095356;28;20384;-86
2023/07/20 11:25:49;;;;;;;2.60;1.50;;;;;;;;;;5114096;28;20761;-87
2023/07/20 11:28:15;;;;;;;4.10;1.35;;;;;;;;;;5113540;28;20403;-88
2023/07/20 11:30:41;;;;;;;1.85;1.15;;;;;;;;;;5107254;28;20375;-85
2023/07/20 11:33:10;;;;;;;2.67;1.30;;;;;;;;;;5103369;28;20905;-86
2023/07/20 11:35:42;;;;;;;2.03;1.30;;;;;;;;;;5098757;28;20892;-83
2023/07/20 11:38:08;;;;;;;2.20;1.27;;;;;;;;;;5080898;28;20432;-82
2023/07/20 11:40:34;;;;;;;1.63;1.00;;;;;;;;;;5092915;28;20386;-83
2023/07/20 11:43:00;;;;;;;2.75;1.25;;;;;;;;;;5092276;28;20375;-84
2023/07/20 11:45:27;;;;;;;2.25;1.13;;;;;;;;;;5093971;28;20397;-84
2023/07/20 11:47:53;;;;;;;3.33;1.30;;;;;;;;;;5093780;28;20378;-84
2023/07/20 11:50:19;;;;;;;6.32;1.20;;;;;;;;;;5074140;28;20401;-83
2023/07/20 11:52:45;;;;;;;5.20;1.40;;;;;;;;;;5092563;28;20381;-83
2023/07/20 11:55:12;;;;;;;6.25;1.48;;;;;;;;;;5091644;28;20727;-83
2023/07/20 11:57:39;;;;;;;2.30;1.00;;;;;;;;;;5091596;28;20449;-84
2023/07/20 12:00:11;;;;;;;1.30;1.20;;;;;;;;;;5092552;28;20456;-84
2023/07/20 12:02:39;;;;;;;2.97;1.50;;;;;;;;;;5091803;28;20386;-83
2023/07/20 12:05:05;;;;;;;2.00;1.10;;;;;;;;;;5092257;28;20377;-84
2023/07/20 12:07:36;;;;;;;3.13;1.20;;;;;;;;;;5092352;28;20378;-84
2023/07/20 12:10:09;;;;;;;1.90;1.05;;;;;;;;;;5092183;28;20457;-83
2023/07/20 12:12:35;;;;;;;2.63;1.20;;;;;;;;;;5092576;28;20940;-83
2023/07/20 12:15:20;;;;;;;2.65;1.30;;;;;;;;;;5092360;28;20378;-84
2023/07/20 12:17:46;;;;;;;4.05;1.20;;;;;;;;;;5097250;28;20401;-84
2023/07/20 12:20:12;;;;;;;1.55;1.25;;;;;;;;;;5092402;28;20439;-84
2023/07/20 12:22:43;;;;;;;1.88;1.30;;;;;;;;;;5091437;28;20385;-83
2023/07/20 12:25:09;;;;;;;3.22;1.20;;;;;;;;;;5081595;28;20382;-84
2023/07/20 12:27:37;;;;;;;1.38;1.05;;;;;;;;;;5082145;28;20461;-84
2023/07/20 12:30:04;;;;;;;1.65;1.15;;;;;;;;;;5098185;28;20440;-84
2023/07/20 12:32:30;;;;;;;1.88;1.10;;;;;;;;;;5076938;28;20786;-84
2023/07/20 12:34:56;;;;;;;1.10;1.00;;;;;;;;;;5094097;28;20382;-84
2023/07/20 12:37:22;;;;;;;4.10;1.15;;;;;;;;;;5073952;28;20421;-84
2023/07/20 12:39:48;;;;;;;1.90;1.20;;;;;;;;;;5102151;28;20425;-84
2023/07/20 12:42:15;;;;;;;1.40;1.10;;;;;;;;;;5110244;28;20416;-84
2023/07/20 12:44:41;;;;;;;1.80;1.08;;;;;;;;;;5107283;28;20370;-84
2023/07/20 12:47:07;;;;;;;1.42;1.00;;;;;;;;;;5105598;28;20783;-84
2023/07/20 12:49:33;;;;;;;1.48;1.00;;;;;;;;;;5104385;28;20377;-84
2023/07/20 12:51:59;;;;;;;2.22;1.02;;;;;;;;;;5101193;28;20388;-84
2023/07/20 12:54:25;;;;;;;2.13;1.20;;;;;;;;;;5100305;28;20385;-84
2023/07/20 12:56:51;;;;;;;1.45;1.20;;;;;;;;;;5097371;28;20402;-84
2023/07/20 12:59:17;;;;;;;2.72;1.20;;;;;;;;;;5096699;28;20409;-84
2023/07/20 13:01:43;;;;;;;2.72;1.20;;;;;;;;;;5095611;28;20377;-84
2023/07/20 13:04:10;;;;;;;4.40;1.30;;;;;;;;;;5109245;28;20733;-84
2023/07/20 13:06:36;;;;;;;2.27;1.20;;;;;;;;;;5111179;28;20426;-84
2023/07/20 13:09:03;;;;;;;1.60;1.20;;;;;;;;;;5104971;28;20385;-84
2023/07/20 13:11:29;;;;;;;2.00;1.17;;;;;;;;;;5098028;28;20449;-84
2023/07/20 13:13:55;;;;;;;1.38;1.10;;;;;;;;;;5096850;28;20408;-84
2023/07/20 13:16:21;;;;;;;1.67;1.10;;;;;;;;;;5078781;28;20434;-84
2023/07/20 13:18:47;;;;;;;5.60;1.30;;;;;;;;;;5100320;28;20404;-84
2023/07/20 13:21:13;;;;;;;2.33;1.02;;;;;;;;;;5099822;28;20851;-84
2023/07/20 13:23:39;;;;;;;1.75;1.20;;;;;;;;;;5103612;28;20399;-84
2023/07/20 13:26:05;;;;;;;3.72;1.00;;;;;;;;;;5107536;28;20801;-84
2023/07/20 13:28:31;;;;;;;4.90;1.50;;;;;;;;;;5089602;28;20404;-84
2023/07/20 13:30:57;;;;;;;5.55;1.40;;;;;;;;;;5100136;28;20485;-84
2023/07/20 13:33:23;;;;;;;2.22;1.13;;;;;;;;;;5096385;28;20862;-84
2023/07/20 13:35:49;;;;;;;2.05;1.15;;;;;;;;;;5094315;28;20422;-84
2023/07/20 13:38:15;;;;;;;2.42;1.10;;;;;;;;;;5097127;28;20469;-84
2023/07/20 13:40:42;;;;;;;1.80;1.10;;;;;;;;;;5101337;28;20410;-84
2023/07/20 13:43:08;;;;;;;4.45;1.33;;;;;;;;;;5105886;28;20374;-84
2023/07/20 13:45:34;;;;;;;4.97;1.17;;;;;;;;;;5107971;28;20518;-87
2023/07/20 13:48:00;;;;;;;3.93;1.10;;;;;;;;;;5101668;28;20851;-84
2023/07/20 13:50:28;;;;;;;1.17;0.90;;;;;;;;;;5105673;28;20452;-83
2023/07/20 13:52:54;;;;;;;3.50;1.13;;;;;;;;;;5108165;28;20376;-84
2023/07/20 13:55:20;;;;;;;5.20;1.40;;;;;;;;;;5098363;28;20512;-84
2023/07/20 13:57:46;;;;;;;1.35;1.00;;;;;;;;;;5109746;28;20380;-84
2023/07/20 14:00:13;;;;;;;2.50;1.20;;;;;;;;;;5103339;28;20447;-85
2023/07/20 14:02:39;;;;;;;4.32;1.20;;;;;;;;;;5099890;28;20459;-86
2023/07/20 14:05:05;;;;;;;2.70;1.00;;;;;;;;;;5097169;28;20797;-86
2023/07/20 14:07:32;;;;;;;4.83;1.20;;;;;;;;;;5102517;28;20426;-85
2023/07/20 14:09:59;;;;;;;1.13;0.98;;;;;;;;;;5108746;28;20467;-84
2023/07/20 14:12:25;;;;;;;2.47;1.25;;;;;;;;;;5086111;28;20817;-85
2023/07/20 14:14:51;;;;;;;1.08;0.82;;;;;;;;;;5087920;28;20447;-85
2023/07/20 14:17:17;;;;;;;1.10;1.00;;;;;;;;;;5103815;28;20917;-85
2023/07/20 14:19:43;;;;;;;3.00;1.10;;;;;;;;;;5096639;28;20858;-85
2023/07/20 14:22:09;;;;;;;1.15;1.00;;;;;;;;;;5108251;28;20374;-86
2023/07/20 14:24:35;;;;;;;2.25;1.02;;;;;;;;;;5107777;28;20733;-85
2023/07/20 14:27:01;;;;;;;1.38;1.10;;;;;;;;;;5096412;28;20388;-86
2023/07/20 14:29:31;;;;;;;2.05;1.00;;;;;;;;;;5105313;28;20382;-86
2023/07/20 14:31:57;;;;;;;1.85;0.90;;;;;;;;;;5094238;28;20382;-85
2023/07/20 14:34:23;;;;;;;1.17;0.98;;;;;;;;;;5094109;28;20443;-87
2023/07/20 14:36:49;;;;;;;2.53;1.10;;;;;;;;;;5094870;28;20741;-89
2023/07/20 14:39:19;;;;;;;2.88;1.10;;;;;;;;;;5092280;28;20378;-90
2023/07/20 14:41:45;;;;;;;2.45;0.95;;;;;;;;;;5072342;28;20431;-89